sensor_id;sensor_type;location;lat;lon;timestamp;temperature;humidity
18948;DHT22;9607;51.600;7.558;2023-02-03T00:01:45;8.40;99.90
18948;DHT22;9607;51.600;7.558;2023-02-03T00:04:12;8.40;99.90
18948;DHT22;9607;51.600;7.558;2023-02-03T00:06:41;8.50;99.90
18948;DHT22;9607;51.600;7.558;2023-02-03T00:09:08;8.40;99.90
18948;DHT22;9607;51.600;7.558;2023-02-03T00:11:35;8.50;99.90
18948;DHT22;9607;51.600;7.558;2023-02-03T00:14:02;8.40;99.90
18948;DHT22;9607;51.600;7.558;2023-02-03T00:16:32;8.40;99.90
18948;DHT22;9607;51.600;7.558;2023-02-03T00:18:59;8.40;99.90
18948;DHT22;9607;51.600;7.558;2023-02-03T00:21:26;8.50;99.90
18948;DHT22;9607;51.600;7.558;2023-02-03T00:23:54;8.50;99.90
18948;DHT22;9607;51.600;7.558;2023-02-03T00:26:21;8.50;99.90
18948;DHT22;9607;51.600;7.558;2023-02-03T00:28:48;8.50;99.90
18948;DHT22;9607;51.600;7.558;2023-02-03T00:31:16;8.50;99.90
18948;DHT22;9607;51.600;7.558;2023-02-03T00:33:43;8.50;99.90
18948;DHT22;9607;51.600;7.558;2023-02-03T00:36:10;8.50;99.90
18948;DHT22;9607;51.600;7.558;2023-02-03T00:38:37;8.50;99.90
18948;DHT22;9607;51.600;7.558;2023-02-03T00:41:06;8.50;99.90
18948;DHT22;9607;51.600;7.558;2023-02-03T00:43:33;8.50;99.90
18948;DHT22;9607;51.600;7.558;2023-02-03T00:46:00;8.50;99.90
18948;DHT22;9607;51.600;7.558;2023-02-03T00:48:27;8.50;99.90
18948;DHT22;9607;51.600;7.558;2023-02-03T00:50:53;8.50;99.90
18948;DHT22;9607;51.600;7.558;2023-02-03T00:53:20;8.50;99.90
18948;DHT22;9607;51.600;7.558;2023-02-03T00:55:47;8.50;99.90
18948;DHT22;9607;51.600;7.558;2023-02-03T00:58:15;8.50;99.90
18948;DHT22;9607;51.600;7.558;2023-02-03T01:00:42;8.50;99.90
18948;DHT22;9607;51.600;7.558;2023-02-03T01:03:09;8.50;99.90
18948;DHT22;9607;51.600;7.558;2023-02-03T01:05:36;8.50;99.90
18948;DHT22;9607;51.600;7.558;2023-02-03T01:08:03;8.50;99.90
18948;DHT22;9607;51.600;7.558;2023-02-03T01:10:31;8.50;99.90
18948;DHT22;9607;51.600;7.558;2023-02-03T01:12:58;8.50;99.90
18948;DHT22;9607;51.600;7.558;2023-02-03T01:15:26;8.50;99.90
18948;DHT22;9607;51.600;7.558;2023-02-03T01:17:53;8.50;99.90
18948;DHT22;9607;51.600;7.558;2023-02-03T01:20:20;8.50;99.90
18948;DHT22;9607;51.600;7.558;2023-02-03T01:22:47;8.60;99.90
18948;DHT22;9607;51.600;7.558;2023-02-03T01:25:14;8.60;99.90
18948;DHT22;9607;51.600;7.558;2023-02-03T01:27:40;8.60;99.90
18948;DHT22;9607;51.600;7.558;2023-02-03T01:30:08;8.60;99.90
18948;DHT22;9607;51.600;7.558;2023-02-03T01:32:37;8.60;99.90
18948;DHT22;9607;51.600;7.558;2023-02-03T01:35:04;8.60;99.90
18948;DHT22;9607;51.600;7.558;2023-02-03T01:37:31;8.60;99.90
18948;DHT22;9607;51.600;7.558;2023-02-03T01:39:57;8.60;99.90
18948;DHT22;9607;51.600;7.558;2023-02-03T01:42:24;8.60;99.90
18948;DHT22;9607;51.600;7.558;2023-02-03T01:44:51;8.60;99.90
18948;DHT22;9607;51.600;7.558;2023-02-03T01:47:26;8.60;99.90
18948;DHT22;9607;51.600;7.558;2023-02-03T01:50:00;8.60;99.90
18948;DHT22;9607;51.600;7.558;2023-02-03T01:52:29;8.60;99.90
18948;DHT22;9607;51.600;7.558;2023-02-03T01:54:59;8.60;99.90
18948;DHT22;9607;51.600;7.558;2023-02-03T01:57:33;8.60;99.90
18948;DHT22;9607;51.600;7.558;2023-02-03T02:00:05;8.60;99.90
18948;DHT22;9607;51.600;7.558;2023-02-03T02:02:33;8.60;99.90
18948;DHT22;9607;51.600;7.558;2023-02-03T02:05:05;8.60;99.90
18948;DHT22;9607;51.600;7.558;2023-02-03T02:07:33;8.60;99.90
18948;DHT22;9607;51.600;7.558;2023-02-03T02:10:03;8.60;99.90
18948;DHT22;9607;51.600;7.558;2023-02-03T02:12:30;8.60;99.90
18948;DHT22;9607;51.600;7.558;2023-02-03T02:14:57;8.70;99.90
18948;DHT22;9607;51.600;7.558;2023-02-03T02:17:48;8.60;99.90
18948;DHT22;9607;51.600;7.558;2023-02-03T02:20:33;8.60;99.90
18948;DHT22;9607;51.600;7.558;2023-02-03T02:23:35;8.60;99.90
18948;DHT22;9607;51.600;7.558;2023-02-03T02:29:51;8.60;99.90
18948;DHT22;9607;51.600;7.558;2023-02-03T02:32:29;8.60;99.90
18948;DHT22;9607;51.600;7.558;2023-02-03T02:35:03;8.60;99.90
18948;DHT22;9607;51.600;7.558;2023-02-03T02:37:40;8.60;99.90
18948;DHT22;9607;51.600;7.558;2023-02-03T02:40:20;8.60;99.90
18948;DHT22;9607;51.600;7.558;2023-02-03T02:43:00;8.60;99.90
18948;DHT22;9607;51.600;7.558;2023-02-03T02:45:30;8.70;99.90
18948;DHT22;9607;51.600;7.558;2023-02-03T02:48:05;8.60;99.90
18948;DHT22;9607;51.600;7.558;2023-02-03T02:50:38;8.60;99.90
18948;DHT22;9607;51.600;7.558;2023-02-03T02:53:07;8.60;99.90
18948;DHT22;9607;51.600;7.558;2023-02-03T02:55:37;8.60;99.90
18948;DHT22;9607;51.600;7.558;2023-02-03T02:58:07;8.60;99.90
18948;DHT22;9607;51.600;7.558;2023-02-03T03:00:39;8.60;99.90
18948;DHT22;9607;51.600;7.558;2023-02-03T03:03:12;8.60;99.90
18948;DHT22;9607;51.600;7.558;2023-02-03T03:05:40;8.70;99.90
18948;DHT22;9607;51.600;7.558;2023-02-03T03:08:09;8.60;99.90
18948;DHT22;9607;51.600;7.558;2023-02-03T03:10:40;8.60;99.90
18948;DHT22;9607;51.600;7.558;2023-02-03T03:13:10;8.60;99.90
18948;DHT22;9607;51.600;7.558;2023-02-03T03:15:39;8.60;99.90
18948;DHT22;9607;51.600;7.558;2023-02-03T03:18:09;8.60;99.90
18948;DHT22;9607;51.600;7.558;2023-02-03T03:20:41;8.60;99.90
18948;DHT22;9607;51.600;7.558;2023-02-03T03:23:12;8.60;99.90
18948;DHT22;9607;51.600;7.558;2023-02-03T03:25:42;8.60;99.90
18948;DHT22;9607;51.600;7.558;2023-02-03T03:28:15;8.60;99.90
18948;DHT22;9607;51.600;7.558;2023-02-03T03:30:44;8.70;99.90
18948;DHT22;9607;51.600;7.558;2023-02-03T03:33:11;8.60;99.90
18948;DHT22;9607;51.600;7.558;2023-02-03T03:35:43;8.60;99.90
18948;DHT22;9607;51.600;7.558;2023-02-03T03:38:17;8.60;99.90
18948;DHT22;9607;51.600;7.558;2023-02-03T03:40:50;8.60;99.90
18948;DHT22;9607;51.600;7.558;2023-02-03T03:43:20;8.60;99.90
18948;DHT22;9607;51.600;7.558;2023-02-03T03:45:53;8.60;99.90
18948;DHT22;9607;51.600;7.558;2023-02-03T03:48:26;8.60;99.90
18948;DHT22;9607;51.600;7.558;2023-02-03T03:50:59;8.60;99.90
18948;DHT22;9607;51.600;7.558;2023-02-03T03:53:29;8.60;99.90
18948;DHT22;9607;51.600;7.558;2023-02-03T03:56:00;8.60;99.90
18948;DHT22;9607;51.600;7.558;2023-02-03T03:58:29;8.60;99.90
18948;DHT22;9607;51.600;7.558;2023-02-03T04:00:59;8.60;99.90
18948;DHT22;9607;51.600;7.558;2023-02-03T04:03:30;8.60;99.90
18948;DHT22;9607;51.600;7.558;2023-02-03T04:05:59;8.60;99.90
18948;DHT22;9607;51.600;7.558;2023-02-03T04:08:26;8.60;99.90
18948;DHT22;9607;51.600;7.558;2023-02-03T04:10:53;8.60;99.90
18948;DHT22;9607;51.600;7.558;2023-02-03T04:13:20;8.60;99.90
18948;DHT22;9607;51.600;7.558;2023-02-03T04:15:47;8.60;99.90
18948;DHT22;9607;51.600;7.558;2023-02-03T04:18:14;8.60;99.90
18948;DHT22;9607;51.600;7.558;2023-02-03T04:20:41;8.60;99.90
18948;DHT22;9607;51.600;7.558;2023-02-03T04:23:10;8.60;99.90
18948;DHT22;9607;51.600;7.558;2023-02-03T04:25:37;8.60;99.90
18948;DHT22;9607;51.600;7.558;2023-02-03T04:28:04;8.70;99.90
18948;DHT22;9607;51.600;7.558;2023-02-03T04:30:31;8.70;99.90
18948;DHT22;9607;51.600;7.558;2023-02-03T04:32:58;8.70;99.90
18948;DHT22;9607;51.600;7.558;2023-02-03T04:35:25;8.70;99.90
18948;DHT22;9607;51.600;7.558;2023-02-03T04:37:52;8.70;99.90
18948;DHT22;9607;51.600;7.558;2023-02-03T04:40:20;8.70;99.90
18948;DHT22;9607;51.600;7.558;2023-02-03T04:42:47;8.70;99.90
18948;DHT22;9607;51.600;7.558;2023-02-03T04:45:14;8.70;99.90
18948;DHT22;9607;51.600;7.558;2023-02-03T04:47:40;8.70;99.90
18948;DHT22;9607;51.600;7.558;2023-02-03T04:50:08;8.70;99.90
18948;DHT22;9607;51.600;7.558;2023-02-03T04:52:35;8.70;99.90
18948;DHT22;9607;51.600;7.558;2023-02-03T04:55:02;8.60;99.90
18948;DHT22;9607;51.600;7.558;2023-02-03T04:57:30;8.70;99.90
18948;DHT22;9607;51.600;7.558;2023-02-03T04:59:57;8.70;99.90
18948;DHT22;9607;51.600;7.558;2023-02-03T05:02:24;8.70;99.90
18948;DHT22;9607;51.600;7.558;2023-02-03T05:04:51;8.70;99.90
18948;DHT22;9607;51.600;7.558;2023-02-03T05:07:18;8.80;99.90
18948;DHT22;9607;51.600;7.558;2023-02-03T05:09:45;8.70;99.90
18948;DHT22;9607;51.600;7.558;2023-02-03T05:12:12;8.60;99.90
18948;DHT22;9607;51.600;7.558;2023-02-03T05:14:40;8.70;99.90
18948;DHT22;9607;51.600;7.558;2023-02-03T05:17:07;8.70;99.90
18948;DHT22;9607;51.600;7.558;2023-02-03T05:19:34;8.70;99.90
18948;DHT22;9607;51.600;7.558;2023-02-03T05:22:01;8.70;99.90
18948;DHT22;9607;51.600;7.558;2023-02-03T05:24:28;8.70;99.90
18948;DHT22;9607;51.600;7.558;2023-02-03T05:26:55;8.70;99.90
18948;DHT22;9607;51.600;7.558;2023-02-03T05:29:22;8.70;99.90
18948;DHT22;9607;51.600;7.558;2023-02-03T05:31:50;8.70;99.90
18948;DHT22;9607;51.600;7.558;2023-02-03T05:34:17;8.70;99.90
18948;DHT22;9607;51.600;7.558;2023-02-03T05:36:43;8.70;99.90
18948;DHT22;9607;51.600;7.558;2023-02-03T05:39:10;8.70;99.90
18948;DHT22;9607;51.600;7.558;2023-02-03T05:41:38;8.70;99.90
18948;DHT22;9607;51.600;7.558;2023-02-03T05:44:19;8.70;99.90
18948;DHT22;9607;51.600;7.558;2023-02-03T05:46:47;8.80;99.90
18948;DHT22;9607;51.600;7.558;2023-02-03T05:49:15;8.80;99.90
18948;DHT22;9607;51.600;7.558;2023-02-03T05:51:44;8.80;99.90
18948;DHT22;9607;51.600;7.558;2023-02-03T05:54:11;8.70;99.90
18948;DHT22;9607;51.600;7.558;2023-02-03T05:56:38;8.70;99.90
18948;DHT22;9607;51.600;7.558;2023-02-03T05:59:05;8.70;99.90
18948;DHT22;9607;51.600;7.558;2023-02-03T06:01:32;8.70;99.90
18948;DHT22;9607;51.600;7.558;2023-02-03T06:04:00;8.80;99.90
18948;DHT22;9607;51.600;7.558;2023-02-03T06:06:29;8.80;99.90
18948;DHT22;9607;51.600;7.558;2023-02-03T06:08:58;8.80;99.90
18948;DHT22;9607;51.600;7.558;2023-02-03T06:11:25;8.80;99.90
18948;DHT22;9607;51.600;7.558;2023-02-03T06:13:53;8.70;99.90
18948;DHT22;9607;51.600;7.558;2023-02-03T06:16:20;8.80;99.90
18948;DHT22;9607;51.600;7.558;2023-02-03T06:18:49;8.80;99.90
18948;DHT22;9607;51.600;7.558;2023-02-03T06:21:16;8.80;99.90
18948;DHT22;9607;51.600;7.558;2023-02-03T06:23:44;8.90;99.90
18948;DHT22;9607;51.600;7.558;2023-02-03T06:26:11;8.80;99.90
18948;DHT22;9607;51.600;7.558;2023-02-03T06:28:38;8.80;99.90
18948;DHT22;9607;51.600;7.558;2023-02-03T06:31:05;8.80;99.90
18948;DHT22;9607;51.600;7.558;2023-02-03T06:33:32;8.80;99.90
18948;DHT22;9607;51.600;7.558;2023-02-03T06:35:59;8.90;99.90
18948;DHT22;9607;51.600;7.558;2023-02-03T06:38:27;8.90;99.90
18948;DHT22;9607;51.600;7.558;2023-02-03T06:40:56;8.90;99.90
18948;DHT22;9607;51.600;7.558;2023-02-03T06:43:23;8.90;99.90
18948;DHT22;9607;51.600;7.558;2023-02-03T06:45:49;8.90;99.90
18948;DHT22;9607;51.600;7.558;2023-02-03T06:48:16;8.90;99.90
18948;DHT22;9607;51.600;7.558;2023-02-03T06:50:44;8.90;99.90
18948;DHT22;9607;51.600;7.558;2023-02-03T06:53:10;8.90;99.90
18948;DHT22;9607;51.600;7.558;2023-02-03T06:55:37;8.90;99.90
18948;DHT22;9607;51.600;7.558;2023-02-03T06:58:06;8.90;99.90
18948;DHT22;9607;51.600;7.558;2023-02-03T07:00:33;8.90;99.90
18948;DHT22;9607;51.600;7.558;2023-02-03T07:03:00;8.90;99.90
18948;DHT22;9607;51.600;7.558;2023-02-03T07:05:27;8.90;99.90
18948;DHT22;9607;51.600;7.558;2023-02-03T07:07:54;8.80;99.90
18948;DHT22;9607;51.600;7.558;2023-02-03T07:10:21;8.80;99.90
18948;DHT22;9607;51.600;7.558;2023-02-03T07:12:48;8.80;99.90
18948;DHT22;9607;51.600;7.558;2023-02-03T07:15:17;8.70;99.90
18948;DHT22;9607;51.600;7.558;2023-02-03T07:17:46;8.70;99.90
18948;DHT22;9607;51.600;7.558;2023-02-03T07:20:19;8.70;99.90
18948;DHT22;9607;51.600;7.558;2023-02-03T07:22:51;8.70;99.90
18948;DHT22;9607;51.600;7.558;2023-02-03T07:25:17;8.60;99.90
18948;DHT22;9607;51.600;7.558;2023-02-03T07:27:44;8.60;99.90
18948;DHT22;9607;51.600;7.558;2023-02-03T07:30:12;8.60;99.90
18948;DHT22;9607;51.600;7.558;2023-02-03T07:32:40;8.60;99.90
18948;DHT22;9607;51.600;7.558;2023-02-03T07:35:07;8.60;99.90
18948;DHT22;9607;51.600;7.558;2023-02-03T07:37:34;8.60;99.90
18948;DHT22;9607;51.600;7.558;2023-02-03T07:40:01;8.60;99.90
18948;DHT22;9607;51.600;7.558;2023-02-03T07:42:28;8.70;99.90
18948;DHT22;9607;51.600;7.558;2023-02-03T07:44:55;8.70;99.90
18948;DHT22;9607;51.600;7.558;2023-02-03T07:47:22;8.70;99.90
18948;DHT22;9607;51.600;7.558;2023-02-03T07:49:50;8.70;99.90
18948;DHT22;9607;51.600;7.558;2023-02-03T07:52:17;8.70;99.90
18948;DHT22;9607;51.600;7.558;2023-02-03T07:54:44;8.70;99.90
18948;DHT22;9607;51.600;7.558;2023-02-03T07:57:11;8.80;99.90
18948;DHT22;9607;51.600;7.558;2023-02-03T07:59:37;8.80;99.90
18948;DHT22;9607;51.600;7.558;2023-02-03T08:02:04;8.80;99.90
18948;DHT22;9607;51.600;7.558;2023-02-03T08:04:33;8.80;99.90
18948;DHT22;9607;51.600;7.558;2023-02-03T08:07:02;8.80;99.90
18948;DHT22;9607;51.600;7.558;2023-02-03T08:09:28;8.80;99.90
18948;DHT22;9607;51.600;7.558;2023-02-03T08:11:55;8.90;99.90
18948;DHT22;9607;51.600;7.558;2023-02-03T08:14:22;8.90;99.90
18948;DHT22;9607;51.600;7.558;2023-02-03T08:16:49;8.90;99.90
18948;DHT22;9607;51.600;7.558;2023-02-03T08:19:16;8.90;99.90
18948;DHT22;9607;51.600;7.558;2023-02-03T08:21:42;8.90;99.90
18948;DHT22;9607;51.600;7.558;2023-02-03T08:24:11;9.00;99.90
18948;DHT22;9607;51.600;7.558;2023-02-03T08:26:38;9.00;99.90
18948;DHT22;9607;51.600;7.558;2023-02-03T08:29:05;9.10;99.90
18948;DHT22;9607;51.600;7.558;2023-02-03T08:31:32;9.10;99.90
18948;DHT22;9607;51.600;7.558;2023-02-03T08:33:59;9.00;99.90
18948;DHT22;9607;51.600;7.558;2023-02-03T08:36:26;9.10;99.90
18948;DHT22;9607;51.600;7.558;2023-02-03T08:38:53;9.10;99.90
18948;DHT22;9607;51.600;7.558;2023-02-03T08:41:21;9.10;99.90
18948;DHT22;9607;51.600;7.558;2023-02-03T08:43:48;9.10;99.90
18948;DHT22;9607;51.600;7.558;2023-02-03T08:46:15;9.00;99.90
18948;DHT22;9607;51.600;7.558;2023-02-03T08:48:42;9.00;99.90
18948;DHT22;9607;51.600;7.558;2023-02-03T08:51:09;9.10;99.90
18948;DHT22;9607;51.600;7.558;2023-02-03T08:53:36;9.10;99.90
18948;DHT22;9607;51.600;7.558;2023-02-03T08:56:05;9.10;99.90
18948;DHT22;9607;51.600;7.558;2023-02-03T08:58:33;9.10;99.90
18948;DHT22;9607;51.600;7.558;2023-02-03T09:01:07;9.00;99.90
18948;DHT22;9607;51.600;7.558;2023-02-03T09:03:34;9.10;99.90
18948;DHT22;9607;51.600;7.558;2023-02-03T09:06:01;9.10;99.90
18948;DHT22;9607;51.600;7.558;2023-02-03T09:08:29;9.10;99.90
18948;DHT22;9607;51.600;7.558;2023-02-03T09:10:56;9.20;99.90
18948;DHT22;9607;51.600;7.558;2023-02-03T09:13:23;9.20;99.90
18948;DHT22;9607;51.600;7.558;2023-02-03T09:15:51;9.20;99.90
18948;DHT22;9607;51.600;7.558;2023-02-03T09:18:18;9.30;99.90
18948;DHT22;9607;51.600;7.558;2023-02-03T09:20:45;9.30;99.90
18948;DHT22;9607;51.600;7.558;2023-02-03T09:23:11;9.30;99.90
18948;DHT22;9607;51.600;7.558;2023-02-03T09:25:38;9.30;99.90
18948;DHT22;9607;51.600;7.558;2023-02-03T09:28:05;9.40;99.90
18948;DHT22;9607;51.600;7.558;2023-02-03T09:30:32;9.30;99.90
18948;DHT22;9607;51.600;7.558;2023-02-03T09:33:00;9.30;99.90
18948;DHT22;9607;51.600;7.558;2023-02-03T09:35:27;9.30;99.90
18948;DHT22;9607;51.600;7.558;2023-02-03T09:37:54;9.30;99.90
18948;DHT22;9607;51.600;7.558;2023-02-03T09:40:26;9.30;99.90
18948;DHT22;9607;51.600;7.558;2023-02-03T09:43:04;9.40;99.90
18948;DHT22;9607;51.600;7.558;2023-02-03T09:45:32;9.40;99.90
18948;DHT22;9607;51.600;7.558;2023-02-03T09:48:03;9.40;99.90
18948;DHT22;9607;51.600;7.558;2023-02-03T09:50:33;9.40;99.90
18948;DHT22;9607;51.600;7.558;2023-02-03T09:53:04;9.50;99.90
18948;DHT22;9607;51.600;7.558;2023-02-03T09:55:34;9.50;99.90
18948;DHT22;9607;51.600;7.558;2023-02-03T09:58:04;9.50;99.90
18948;DHT22;9607;51.600;7.558;2023-02-03T10:00:34;9.50;99.90
18948;DHT22;9607;51.600;7.558;2023-02-03T10:03:07;9.50;99.90
18948;DHT22;9607;51.600;7.558;2023-02-03T10:05:51;9.50;99.90
18948;DHT22;9607;51.600;7.558;2023-02-03T10:08:31;9.50;99.90
18948;DHT22;9607;51.600;7.558;2023-02-03T10:11:07;9.60;99.90
18948;DHT22;9607;51.600;7.558;2023-02-03T10:13:48;9.60;99.90
18948;DHT22;9607;51.600;7.558;2023-02-03T10:16:40;9.60;99.90
18948;DHT22;9607;51.600;7.558;2023-02-03T10:19:12;9.60;99.90
18948;DHT22;9607;51.600;7.558;2023-02-03T10:21:44;9.60;99.90
18948;DHT22;9607;51.600;7.558;2023-02-03T10:24:16;9.60;99.90
18948;DHT22;9607;51.600;7.558;2023-02-03T10:26:45;9.60;99.90
18948;DHT22;9607;51.600;7.558;2023-02-03T10:29:18;9.60;99.90
18948;DHT22;9607;51.600;7.558;2023-02-03T10:31:46;9.60;99.90
18948;DHT22;9607;51.600;7.558;2023-02-03T10:34:16;9.60;99.90
18948;DHT22;9607;51.600;7.558;2023-02-03T10:36:53;9.60;99.90
18948;DHT22;9607;51.600;7.558;2023-02-03T10:39:28;9.60;99.90
18948;DHT22;9607;51.600;7.558;2023-02-03T10:41:56;9.60;99.90
18948;DHT22;9607;51.600;7.558;2023-02-03T10:44:30;9.70;99.90
18948;DHT22;9607;51.600;7.558;2023-02-03T10:46:57;9.60;99.90
18948;DHT22;9607;51.600;7.558;2023-02-03T10:49:27;9.70;99.90
18948;DHT22;9607;51.600;7.558;2023-02-03T10:51:57;9.70;99.90
18948;DHT22;9607;51.600;7.558;2023-02-03T10:54:30;9.70;99.90
18948;DHT22;9607;51.600;7.558;2023-02-03T10:57:02;9.70;99.90
18948;DHT22;9607;51.600;7.558;2023-02-03T10:59:32;9.80;99.90
18948;DHT22;9607;51.600;7.558;2023-02-03T11:02:07;9.70;99.90
18948;DHT22;9607;51.600;7.558;2023-02-03T11:04:36;9.70;99.90
18948;DHT22;9607;51.600;7.558;2023-02-03T11:07:06;9.70;99.90
18948;DHT22;9607;51.600;7.558;2023-02-03T11:09:34;9.80;99.90
18948;DHT22;9607;51.600;7.558;2023-02-03T11:12:06;9.70;99.90
18948;DHT22;9607;51.600;7.558;2023-02-03T11:14:36;9.80;99.90
18948;DHT22;9607;51.600;7.558;2023-02-03T11:17:07;9.80;99.90
18948;DHT22;9607;51.600;7.558;2023-02-03T11:19:38;9.80;99.90
18948;DHT22;9607;51.600;7.558;2023-02-03T11:22:05;9.80;99.90
18948;DHT22;9607;51.600;7.558;2023-02-03T11:24:36;9.80;99.90
18948;DHT22;9607;51.600;7.558;2023-02-03T11:27:05;9.90;99.90
18948;DHT22;9607;51.600;7.558;2023-02-03T11:29:34;9.90;99.90
18948;DHT22;9607;51.600;7.558;2023-02-03T11:32:03;9.90;99.90
18948;DHT22;9607;51.600;7.558;2023-02-03T11:34:36;9.90;99.90
18948;DHT22;9607;51.600;7.558;2023-02-03T11:37:24;9.90;99.90
18948;DHT22;9607;51.600;7.558;2023-02-03T11:39:55;9.90;99.90
18948;DHT22;9607;51.600;7.558;2023-02-03T11:42:22;9.90;99.90
18948;DHT22;9607;51.600;7.558;2023-02-03T11:44:49;9.90;99.90
18948;DHT22;9607;51.600;7.558;2023-02-03T11:47:17;10.00;99.90
18948;DHT22;9607;51.600;7.558;2023-02-03T11:53:04;9.80;99.90
18948;DHT22;9607;51.600;7.558;2023-02-03T11:55:46;9.70;99.90
18948;DHT22;9607;51.600;7.558;2023-02-03T12:01:22;9.70;99.90
18948;DHT22;9607;51.600;7.558;2023-02-03T12:07:04;9.60;99.90
18948;DHT22;9607;51.600;7.558;2023-02-03T12:09:45;9.60;99.90
18948;DHT22;9607;51.600;7.558;2023-02-03T12:12:28;9.60;99.90
18948;DHT22;9607;51.600;7.558;2023-02-03T12:15:05;9.70;99.90
18948;DHT22;9607;51.600;7.558;2023-02-03T12:17:57;9.70;99.90
18948;DHT22;9607;51.600;7.558;2023-02-03T12:20:37;9.70;99.90
18948;DHT22;9607;51.600;7.558;2023-02-03T12:23:18;9.80;99.90
18948;DHT22;9607;51.600;7.558;2023-02-03T12:25:58;9.70;99.90
18948;DHT22;9607;51.600;7.558;2023-02-03T12:31:19;9.90;99.90
18948;DHT22;9607;51.600;7.558;2023-02-03T12:33:52;9.90;99.90
18948;DHT22;9607;51.600;7.558;2023-02-03T12:36:23;9.90;99.90
18948;DHT22;9607;51.600;7.558;2023-02-03T12:38:56;9.90;99.90
18948;DHT22;9607;51.600;7.558;2023-02-03T12:41:27;9.90;99.90
18948;DHT22;9607;51.600;7.558;2023-02-03T12:43:59;9.80;99.90
18948;DHT22;9607;51.600;7.558;2023-02-03T12:46:30;9.80;99.90
18948;DHT22;9607;51.600;7.558;2023-02-03T12:49:00;9.70;99.90
18948;DHT22;9607;51.600;7.558;2023-02-03T12:51:33;9.70;99.90
18948;DHT22;9607;51.600;7.558;2023-02-03T12:54:09;9.50;99.90
18948;DHT22;9607;51.600;7.558;2023-02-03T12:56:41;9.50;99.90
18948;DHT22;9607;51.600;7.558;2023-02-03T12:59:12;9.40;99.90
18948;DHT22;9607;51.600;7.558;2023-02-03T13:01:46;9.30;99.90
18948;DHT22;9607;51.600;7.558;2023-02-03T13:04:20;9.10;99.90
18948;DHT22;9607;51.600;7.558;2023-02-03T13:06:53;9.10;99.90
18948;DHT22;9607;51.600;7.558;2023-02-03T13:09:29;8.90;99.90
18948;DHT22;9607;51.600;7.558;2023-02-03T13:12:04;8.90;99.90
18948;DHT22;9607;51.600;7.558;2023-02-03T13:14:35;8.80;99.90
18948;DHT22;9607;51.600;7.558;2023-02-03T13:17:12;8.70;99.90
18948;DHT22;9607;51.600;7.558;2023-02-03T13:19:44;8.70;99.90
18948;DHT22;9607;51.600;7.558;2023-02-03T13:22:14;8.70;99.90
18948;DHT22;9607;51.600;7.558;2023-02-03T13:24:46;8.70;99.90
18948;DHT22;9607;51.600;7.558;2023-02-03T13:27:31;8.60;99.90
18948;DHT22;9607;51.600;7.558;2023-02-03T13:30:16;8.60;99.90
18948;DHT22;9607;51.600;7.558;2023-02-03T13:33:09;8.60;99.90
18948;DHT22;9607;51.600;7.558;2023-02-03T13:35:49;8.60;99.90
18948;DHT22;9607;51.600;7.558;2023-02-03T13:38:38;8.50;99.90
18948;DHT22;9607;51.600;7.558;2023-02-03T13:41:18;8.50;99.90
18948;DHT22;9607;51.600;7.558;2023-02-03T13:43:49;8.60;99.90
18948;DHT22;9607;51.600;7.558;2023-02-03T13:46:21;8.60;99.90
18948;DHT22;9607;51.600;7.558;2023-02-03T13:48:50;8.60;99.90
18948;DHT22;9607;51.600;7.558;2023-02-03T13:51:20;8.60;99.90
18948;DHT22;9607;51.600;7.558;2023-02-03T13:53:49;8.60;99.90
18948;DHT22;9607;51.600;7.558;2023-02-03T13:56:19;8.70;99.90
18948;DHT22;9607;51.600;7.558;2023-02-03T13:58:59;8.70;99.90
18948;DHT22;9607;51.600;7.558;2023-02-03T14:01:32;8.70;99.90
18948;DHT22;9607;51.600;7.558;2023-02-03T14:04:01;8.80;99.90
18948;DHT22;9607;51.600;7.558;2023-02-03T14:06:53;8.80;99.90
18948;DHT22;9607;51.600;7.558;2023-02-03T14:09:21;8.80;99.90
18948;DHT22;9607;51.600;7.558;2023-02-03T14:11:51;8.80;99.90
18948;DHT22;9607;51.600;7.558;2023-02-03T14:14:40;8.90;99.90
18948;DHT22;9607;51.600;7.558;2023-02-03T14:23:56;8.90;99.90
18948;DHT22;9607;51.600;7.558;2023-02-03T14:26:33;8.90;99.90
18948;DHT22;9607;51.600;7.558;2023-02-03T14:29:04;8.80;99.90
18948;DHT22;9607;51.600;7.558;2023-02-03T14:31:55;8.90;99.90
18948;DHT22;9607;51.600;7.558;2023-02-03T14:34:40;8.90;99.90
18948;DHT22;9607;51.600;7.558;2023-02-03T14:37:17;8.90;99.90
18948;DHT22;9607;51.600;7.558;2023-02-03T14:40:11;8.90;99.90
18948;DHT22;9607;51.600;7.558;2023-02-03T14:43:06;8.90;99.90
18948;DHT22;9607;51.600;7.558;2023-02-03T14:45:54;8.90;99.90
18948;DHT22;9607;51.600;7.558;2023-02-03T14:48:43;8.90;99.90
18948;DHT22;9607;51.600;7.558;2023-02-03T14:51:21;8.90;99.90
18948;DHT22;9607;51.600;7.558;2023-02-03T14:56:46;8.90;99.90
18948;DHT22;9607;51.600;7.558;2023-02-03T14:59:36;8.80;99.90
18948;DHT22;9607;51.600;7.558;2023-02-03T15:02:18;8.80;99.90
18948;DHT22;9607;51.600;7.558;2023-02-03T15:04:47;8.90;99.90
18948;DHT22;9607;51.600;7.558;2023-02-03T15:07:38;8.90;99.90
18948;DHT22;9607;51.600;7.558;2023-02-03T15:10:14;8.80;99.90
18948;DHT22;9607;51.600;7.558;2023-02-03T15:12:46;8.80;99.90
18948;DHT22;9607;51.600;7.558;2023-02-03T15:15:18;8.80;99.90
18948;DHT22;9607;51.600;7.558;2023-02-03T15:17:48;8.80;99.90
18948;DHT22;9607;51.600;7.558;2023-02-03T15:20:24;8.80;99.90
18948;DHT22;9607;51.600;7.558;2023-02-03T15:22:51;8.80;99.90
18948;DHT22;9607;51.600;7.558;2023-02-03T15:25:20;8.80;99.90
18948;DHT22;9607;51.600;7.558;2023-02-03T15:27:49;8.80;99.90
18948;DHT22;9607;51.600;7.558;2023-02-03T15:30:19;8.80;99.90
18948;DHT22;9607;51.600;7.558;2023-02-03T15:32:56;8.80;99.90
18948;DHT22;9607;51.600;7.558;2023-02-03T15:35:27;8.80;99.90
18948;DHT22;9607;51.600;7.558;2023-02-03T15:37:59;8.80;99.90
18948;DHT22;9607;51.600;7.558;2023-02-03T15:40:33;8.80;99.90
18948;DHT22;9607;51.600;7.558;2023-02-03T15:43:07;8.80;99.90
18948;DHT22;9607;51.600;7.558;2023-02-03T15:45:36;8.80;99.90
18948;DHT22;9607;51.600;7.558;2023-02-03T15:48:14;8.80;99.90
18948;DHT22;9607;51.600;7.558;2023-02-03T15:50:44;8.70;99.90
18948;DHT22;9607;51.600;7.558;2023-02-03T15:53:17;8.70;99.90
18948;DHT22;9607;51.600;7.558;2023-02-03T15:55:47;8.70;99.90
18948;DHT22;9607;51.600;7.558;2023-02-03T15:58:19;8.80;99.90
18948;DHT22;9607;51.600;7.558;2023-02-03T16:00:50;8.70;99.90
18948;DHT22;9607;51.600;7.558;2023-02-03T16:03:21;8.70;99.90
18948;DHT22;9607;51.600;7.558;2023-02-03T16:05:53;8.70;99.90
18948;DHT22;9607;51.600;7.558;2023-02-03T16:08:37;8.70;99.90
18948;DHT22;9607;51.600;7.558;2023-02-03T16:11:26;8.70;99.90
18948;DHT22;9607;51.600;7.558;2023-02-03T16:13:54;8.70;99.90
18948;DHT22;9607;51.600;7.558;2023-02-03T16:16:23;8.70;99.90
18948;DHT22;9607;51.600;7.558;2023-02-03T16:18:55;8.70;99.90
18948;DHT22;9607;51.600;7.558;2023-02-03T16:21:31;8.60;99.90
18948;DHT22;9607;51.600;7.558;2023-02-03T16:23:58;8.60;99.90
18948;DHT22;9607;51.600;7.558;2023-02-03T16:26:26;8.60;99.90
18948;DHT22;9607;51.600;7.558;2023-02-03T16:29:11;8.60;99.90
18948;DHT22;9607;51.600;7.558;2023-02-03T16:31:56;8.60;99.90
18948;DHT22;9607;51.600;7.558;2023-02-03T16:34:42;8.60;99.90
18948;DHT22;9607;51.600;7.558;2023-02-03T16:37:29;8.60;99.90
18948;DHT22;9607;51.600;7.558;2023-02-03T16:40:17;8.60;99.90
18948;DHT22;9607;51.600;7.558;2023-02-03T16:43:02;8.60;99.90
18948;DHT22;9607;51.600;7.558;2023-02-03T16:45:53;8.60;99.90
18948;DHT22;9607;51.600;7.558;2023-02-03T16:48:38;8.60;99.90
18948;DHT22;9607;51.600;7.558;2023-02-03T16:51:25;8.60;99.90
18948;DHT22;9607;51.600;7.558;2023-02-03T16:53:55;8.50;99.90